Surrey, Canada
Current Conditions -  °F | °C
As of 1:40 AM on Tuesday 21 Oct 2014 (Local Time) from CYVR Reporting Station
Light Rain Light Rain  
Wind Chill: 55°   Ceiling: 5000
Heat Index: 55°   Visibility: 12mi
Dew Point: 54°   Wind: 8mph
Humidity: 94%   Direction: 120°ESE
Pressure: 29.76"   Gusts: NA
Location:  49.11°N, 122.83°W
Report Text: CYVR 210840Z 12007KT 12SM -RA FEW008 SCT039 OVC050 13/12 A2976 RMK CF1SC3SC4 SLP078
Loading
Personal Weather Stations






























Interactive Weather Map
Tropical Storm Tracking
New forecast layout! Learn more

10-Day Weather Forecast

Advertisements
Track Severe Weather on mobile